createdAt,value
2019-03-21T00:01:18.135Z,17.48
2019-03-21T00:03:50.596Z,17.07
2019-03-21T00:06:21.094Z,17.25
2019-03-21T00:08:52.049Z,18.23
2019-03-21T00:11:55.023Z,17.00
2019-03-21T00:14:43.573Z,15.08
2019-03-21T00:17:22.999Z,14.95
2019-03-21T00:19:53.569Z,14.35
2019-03-21T00:22:24.422Z,14.47
2019-03-21T00:24:55.178Z,14.25
2019-03-21T00:27:26.242Z,14.93
2019-03-21T00:29:56.872Z,14.35
2019-03-21T00:32:27.625Z,13.62
2019-03-21T00:34:58.296Z,14.00
2019-03-21T00:37:29.135Z,13.78
2019-03-21T00:40:00.908Z,13.32
2019-03-21T00:42:31.478Z,15.18
2019-03-21T00:45:02.231Z,15.20
2019-03-21T00:47:32.987Z,15.18
2019-03-21T00:50:04.556Z,12.73
2019-03-21T00:52:36.129Z,13.35
2019-03-21T00:55:10.055Z,13.18
2019-03-21T00:57:40.500Z,14.13
2019-03-21T01:00:20.607Z,13.18
2019-03-21T01:02:51.916Z,12.73
2019-03-21T01:05:22.579Z,13.55
2019-03-21T01:07:53.435Z,13.35
2019-03-21T01:10:27.161Z,12.25
2019-03-21T01:12:58.066Z,12.60
2019-03-21T01:15:28.849Z,12.63
2019-03-21T01:17:59.725Z,12.58
2019-03-21T01:20:30.482Z,13.00
2019-03-21T01:23:01.419Z,13.30
2019-03-21T01:25:39.758Z,12.98
2019-03-21T01:28:10.600Z,13.65
2019-03-21T01:30:41.266Z,13.68
2019-03-21T01:33:12.124Z,13.90
2019-03-21T01:35:43.474Z,13.48
2019-03-21T01:38:13.940Z,14.03
2019-03-21T01:40:53.606Z,13.72
2019-03-21T01:43:24.448Z,15.97
2019-03-21T01:45:55.200Z,15.03
2019-03-21T01:48:26.262Z,14.28
2019-03-21T01:50:57.115Z,15.05
2019-03-21T01:53:27.869Z,14.13
2019-03-21T01:55:58.636Z,15.68
2019-03-21T01:58:29.478Z,14.58
2019-03-21T02:01:01.443Z,15.18
2019-03-21T02:03:32.198Z,15.15
2019-03-21T02:06:03.587Z,15.60
2019-03-21T02:08:34.418Z,16.23
2019-03-21T02:11:05.295Z,15.58
2019-03-21T02:13:35.945Z,16.73
2019-03-21T02:16:07.928Z,16.70
2019-03-21T02:18:38.477Z,16.27
2019-03-21T02:21:09.333Z,16.87
2019-03-21T02:23:40.088Z,16.37
2019-03-21T02:26:11.352Z,17.23
2019-03-21T02:28:42.208Z,17.48
2019-03-21T02:31:13.148Z,17.82
2019-03-21T02:36:16.724Z,17.25
2019-03-21T02:38:47.580Z,18.55
2019-03-21T02:41:18.335Z,18.15
2019-03-21T02:43:49.504Z,18.25
2019-03-21T02:46:20.352Z,18.75
2019-03-21T02:48:52.232Z,18.73
2019-03-21T02:51:24.420Z,17.55
2019-03-21T02:53:55.069Z,18.27
2019-03-21T02:56:26.743Z,17.27
2019-03-21T02:58:57.410Z,18.40
2019-03-21T03:01:29.259Z,19.48
2019-03-21T03:04:00.037Z,18.20
2019-03-21T03:06:31.507Z,18.45
2019-03-21T03:09:02.359Z,18.57
2019-03-21T03:11:33.094Z,18.32
2019-03-21T03:14:04.632Z,20.90
2019-03-21T03:16:35.329Z,19.85
2019-03-21T03:19:06.087Z,20.15
2019-03-21T03:21:36.840Z,20.72
2019-03-21T03:24:07.492Z,21.40
2019-03-21T03:26:38.450Z,21.00
2019-03-21T03:29:09.289Z,20.08
2019-03-21T03:31:40.042Z,20.37
2019-03-21T03:34:10.814Z,22.50
2019-03-21T03:36:41.670Z,24.43
2019-03-21T03:39:12.412Z,30.30
2019-03-21T03:41:43.381Z,31.33
2019-03-21T03:44:14.117Z,34.35
2019-03-21T03:46:44.769Z,31.65
2019-03-21T03:49:15.626Z,30.75
2019-03-21T03:51:46.397Z,29.95
2019-03-21T03:54:17.242Z,29.10
2019-03-21T03:56:48.109Z,30.60
2019-03-21T03:59:18.843Z,29.65
2019-03-21T04:01:50.661Z,29.77
2019-03-21T04:04:21.375Z,31.95
2019-03-21T04:06:52.131Z,27.15
2019-03-21T04:09:22.800Z,30.25
2019-03-21T04:11:53.638Z,30.20
2019-03-21T04:14:24.699Z,29.52
2019-03-21T04:19:25.186Z,31.90
2019-03-21T04:24:25.669Z,34.55
2019-03-21T04:26:56.643Z,34.38
2019-03-21T04:29:28.400Z,32.95
2019-03-21T04:31:59.382Z,27.70
2019-03-21T04:34:30.422Z,25.35
2019-03-21T04:37:01.191Z,23.60
2019-03-21T04:39:32.048Z,21.50
2019-03-21T04:42:03.109Z,20.95
2019-03-21T04:44:33.760Z,20.68
2019-03-21T04:47:05.025Z,19.27
2019-03-21T04:49:35.685Z,18.90
2019-03-21T04:54:36.245Z,17.77
2019-03-21T04:57:06.916Z,18.42
2019-03-21T04:59:37.771Z,18.70
2019-03-21T05:02:09.433Z,17.45
2019-03-21T05:04:41.415Z,17.73
2019-03-21T05:07:11.855Z,17.17
2019-03-21T05:09:42.628Z,16.15
2019-03-21T05:12:13.383Z,17.23
2019-03-21T05:14:44.034Z,16.50
2019-03-21T05:17:15.489Z,15.90
2019-03-21T05:22:16.074Z,15.93
2019-03-21T05:24:46.741Z,15.43
2019-03-21T05:27:17.598Z,15.45
2019-03-21T05:29:48.452Z,15.32
2019-03-21T05:32:20.232Z,16.35
2019-03-21T05:34:50.659Z,15.83
2019-03-21T05:37:21.433Z,15.28
2019-03-21T05:39:52.085Z,15.85
2019-03-21T05:42:23.144Z,15.88
2019-03-21T05:44:53.897Z,16.25
2019-03-21T05:47:24.531Z,16.20
2019-03-21T05:49:55.387Z,15.00
2019-03-21T05:52:26.245Z,17.32
2019-03-21T05:55:13.075Z,16.70
2019-03-21T05:57:45.360Z,14.60
2019-03-21T06:00:19.284Z,12.47
2019-03-21T06:02:51.061Z,12.70
2019-03-21T06:05:21.693Z,11.28
2019-03-21T06:08:01.668Z,11.85
2019-03-21T06:10:32.523Z,11.25
2019-03-21T06:13:03.156Z,11.68
2019-03-21T06:18:38.330Z,11.25
2019-03-21T06:21:23.913Z,11.15
2019-03-21T06:24:16.147Z,11.22
2019-03-21T06:27:02.034Z,9.85
2019-03-21T06:29:32.790Z,9.70
2019-03-21T06:32:03.627Z,9.98
2019-03-21T06:34:34.500Z,9.78
2019-03-21T06:37:05.460Z,9.63
2019-03-21T06:39:36.218Z,10.58
2019-03-21T06:42:06.966Z,9.90
2019-03-21T06:44:37.825Z,8.85
2019-03-21T06:47:08.578Z,8.80
2019-03-21T06:49:39.232Z,10.13
2019-03-21T06:52:10.068Z,9.05
2019-03-21T06:54:40.839Z,7.55
2019-03-21T06:57:11.593Z,9.63
2019-03-21T06:59:42.246Z,8.65
2019-03-21T07:02:13.001Z,7.97
2019-03-21T07:04:44.775Z,7.92
2019-03-21T07:07:15.614Z,6.58
2019-03-21T07:09:46.390Z,5.97
2019-03-21T07:12:17.034Z,4.12
2019-03-21T07:14:53.618Z,5.87
2019-03-21T07:17:24.273Z,6.30
2019-03-21T07:19:55.024Z,7.08
2019-03-21T07:22:25.766Z,6.03
2019-03-21T07:24:56.327Z,5.50
2019-03-21T07:29:56.812Z,5.70
2019-03-21T07:32:33.246Z,4.53
2019-03-21T07:34:59.648Z,4.40
2019-03-21T07:37:30.302Z,6.28
2019-03-21T07:40:01.057Z,6.58
2019-03-21T07:42:31.811Z,5.37
2019-03-21T07:45:02.463Z,5.45
2019-03-21T07:47:33.302Z,5.92
2019-03-21T07:50:04.686Z,5.40
2019-03-21T07:52:35.335Z,5.47
2019-03-21T07:55:07.565Z,5.78
2019-03-21T07:57:37.975Z,4.05
2019-03-21T08:00:18.955Z,4.10
2019-03-21T08:02:49.489Z,3.70
2019-03-21T08:05:21.178Z,4.65
2019-03-21T08:07:51.929Z,5.00
2019-03-21T08:10:22.584Z,5.20
2019-03-21T08:12:53.419Z,4.35
2019-03-21T08:15:24.171Z,6.00
2019-03-21T08:17:56.461Z,5.55
2019-03-21T08:20:27.136Z,6.22
2019-03-21T08:22:57.990Z,6.53
2019-03-21T08:25:28.845Z,6.60
2019-03-21T08:27:59.596Z,6.22
2019-03-21T08:30:33.112Z,3.90
2019-03-21T08:33:04.071Z,4.22
2019-03-21T08:35:34.809Z,4.12
2019-03-21T08:38:05.579Z,5.10
2019-03-21T08:40:36.228Z,5.50
2019-03-21T08:43:07.086Z,7.37
2019-03-21T08:45:37.943Z,5.05
2019-03-21T08:48:08.697Z,6.05
2019-03-21T08:50:39.348Z,6.87
2019-03-21T08:53:10.205Z,5.53
2019-03-21T08:55:40.957Z,6.20
2019-03-21T08:58:11.714Z,6.65
2019-03-21T09:00:42.363Z,6.08
2019-03-21T09:03:12.897Z,6.08
2019-03-21T09:05:44.670Z,5.72
2019-03-21T09:08:15.531Z,6.42
2019-03-21T09:10:46.181Z,5.55
2019-03-21T09:13:16.935Z,5.92
2019-03-21T09:15:47.808Z,6.15
2019-03-21T09:18:18.663Z,5.90
2019-03-21T09:20:49.416Z,5.45
2019-03-21T09:23:20.052Z,5.60
2019-03-21T09:25:51.403Z,4.65
2019-03-21T09:28:22.189Z,5.03
2019-03-21T09:30:53.048Z,6.00
2019-03-21T09:33:24.003Z,4.92
2019-03-21T09:35:54.656Z,4.87
2019-03-21T09:38:25.492Z,4.62
2019-03-21T09:40:56.249Z,5.33
2019-03-21T09:43:27.021Z,5.50
2019-03-21T09:45:57.674Z,5.53
2019-03-21T09:48:28.510Z,6.10
2019-03-21T09:50:59.280Z,6.33
2019-03-21T09:53:30.035Z,6.10
2019-03-21T09:56:01.297Z,7.10
2019-03-21T09:58:32.258Z,6.20
2019-03-21T10:01:02.793Z,6.25
2019-03-21T10:03:33.665Z,6.17
2019-03-21T10:06:05.344Z,6.62
2019-03-21T10:08:36.196Z,7.12
2019-03-21T10:11:06.950Z,6.65
2019-03-21T10:13:37.608Z,7.03
2019-03-21T10:16:08.457Z,6.40
2019-03-21T10:18:39.192Z,5.53
2019-03-21T10:21:09.965Z,7.10
2019-03-21T10:23:40.598Z,6.87
2019-03-21T10:26:11.371Z,6.67
2019-03-21T10:28:42.123Z,6.45
2019-03-21T10:31:12.876Z,6.40
2019-03-21T10:33:43.633Z,6.78
2019-03-21T10:36:16.067Z,8.28
2019-03-21T10:38:46.881Z,6.65
2019-03-21T10:41:17.532Z,6.67
2019-03-21T10:43:48.386Z,6.50
2019-03-21T10:46:19.122Z,6.25
2019-03-21T10:48:49.894Z,5.90
2019-03-21T10:51:20.528Z,5.97
2019-03-21T10:53:51.401Z,6.28
2019-03-21T10:56:22.155Z,5.92
2019-03-21T10:58:52.911Z,5.42
2019-03-21T11:01:23.539Z,6.25
2019-03-21T11:03:54.416Z,6.12
2019-03-21T11:06:26.091Z,7.35
2019-03-21T11:08:56.946Z,6.03
2019-03-21T11:11:27.702Z,6.10
2019-03-21T11:13:58.338Z,6.33
2019-03-21T11:16:31.400Z,7.72
2019-03-21T11:19:01.600Z,8.10
2019-03-21T11:21:32.352Z,6.80
2019-03-21T11:24:03.211Z,7.28
2019-03-21T11:26:33.943Z,7.25
2019-03-21T11:29:04.717Z,6.55
2019-03-21T11:31:35.370Z,6.78
2019-03-21T11:34:06.309Z,6.53
2019-03-21T11:36:38.647Z,6.72
2019-03-21T11:39:09.370Z,5.90
2019-03-21T11:41:40.026Z,5.92
2019-03-21T11:44:10.883Z,7.30
2019-03-21T11:46:41.631Z,7.53
2019-03-21T11:49:13.002Z,7.83
2019-03-21T11:51:43.765Z,8.10
2019-03-21T11:54:14.489Z,8.85
2019-03-21T11:56:45.051Z,9.20
2019-03-21T11:59:15.893Z,9.03
2019-03-21T12:01:48.199Z,8.63
2019-03-21T12:04:18.952Z,9.15
2019-03-21T12:06:50.523Z,7.90
2019-03-21T12:09:20.977Z,8.55
2019-03-21T12:11:51.606Z,8.43
2019-03-21T12:14:22.479Z,8.88
2019-03-21T12:16:53.336Z,8.25
2019-03-21T12:19:24.091Z,8.23
2019-03-21T12:21:54.622Z,8.45
2019-03-21T12:24:25.484Z,7.08
2019-03-21T12:26:56.250Z,7.08
2019-03-21T12:29:26.985Z,7.72
2019-03-21T12:31:57.346Z,7.95
2019-03-21T12:34:28.113Z,7.80
2019-03-21T12:36:58.841Z,8.85
2019-03-21T12:39:29.610Z,7.95
2019-03-21T12:42:00.364Z,9.33
2019-03-21T12:44:31.221Z,10.85
2019-03-21T12:47:02.078Z,10.50
2019-03-21T12:49:32.816Z,11.05
2019-03-21T12:52:03.483Z,8.08
2019-03-21T12:54:34.338Z,7.78
2019-03-21T12:57:04.970Z,7.40
2019-03-21T12:59:35.742Z,7.83
2019-03-21T13:02:06.397Z,8.28
2019-03-21T13:04:37.250Z,7.62
2019-03-21T13:07:09.029Z,9.90
2019-03-21T13:09:39.883Z,9.80
2019-03-21T13:12:10.520Z,10.65
2019-03-21T13:17:11.224Z,9.70
2019-03-21T13:19:41.877Z,11.33
2019-03-21T13:22:12.615Z,13.88
2019-03-21T13:24:43.471Z,15.35
2019-03-21T13:27:14.736Z,16.62
2019-03-21T13:29:45.303Z,17.92
2019-03-21T13:32:16.054Z,17.23
2019-03-21T13:34:46.913Z,16.60
2019-03-21T13:37:17.769Z,16.12
2019-03-21T13:39:48.624Z,14.80
2019-03-21T13:42:19.378Z,15.43
2019-03-21T13:44:50.227Z,13.20
2019-03-21T13:47:20.987Z,11.03
2019-03-21T13:49:51.746Z,9.30
2019-03-21T13:52:22.598Z,7.55
2019-03-21T13:54:53.352Z,8.25
2019-03-21T13:57:24.108Z,7.58
2019-03-21T13:59:54.746Z,7.65
2019-03-21T14:02:25.493Z,7.58
2019-03-21T14:04:56.268Z,8.70
2019-03-21T14:07:27.921Z,8.68
2019-03-21T14:09:58.673Z,8.85
2019-03-21T14:12:29.223Z,9.50
2019-03-21T14:17:29.715Z,10.47
2019-03-21T14:20:00.380Z,10.75
2019-03-21T14:22:31.115Z,9.73
2019-03-21T14:25:01.976Z,9.75
2019-03-21T14:27:32.744Z,11.20
2019-03-21T14:30:04.196Z,11.10
2019-03-21T14:32:34.556Z,10.43
2019-03-21T14:35:07.645Z,10.35
2019-03-21T14:37:38.011Z,11.75
2019-03-21T14:40:13.859Z,11.97
2019-03-21T14:42:44.294Z,10.13
2019-03-21T14:45:17.633Z,12.23
2019-03-21T14:47:48.069Z,11.80
2019-03-21T14:50:18.733Z,11.78
2019-03-21T14:52:49.593Z,13.40
2019-03-21T14:55:20.445Z,11.80
2019-03-21T14:57:51.198Z,13.13
2019-03-21T15:00:21.743Z,12.95
2019-03-21T15:02:52.604Z,12.45
2019-03-21T15:05:23.358Z,13.13
2019-03-21T15:07:55.032Z,13.22
2019-03-21T15:10:25.769Z,12.33
2019-03-21T15:12:56.440Z,13.28
2019-03-21T15:15:27.092Z,14.25
2019-03-21T15:17:58.787Z,14.35
2019-03-21T15:20:29.518Z,14.05
2019-03-21T15:23:00.382Z,14.05
2019-03-21T15:25:31.163Z,14.93
2019-03-21T15:28:01.984Z,15.13
2019-03-21T15:30:32.822Z,14.35
2019-03-21T15:33:03.598Z,11.65
2019-03-21T15:35:34.350Z,10.93
2019-03-21T15:38:05.102Z,10.18
2019-03-21T15:40:35.839Z,10.50
2019-03-21T15:43:06.609Z,10.13
2019-03-21T15:45:37.715Z,10.68
2019-03-21T15:48:08.430Z,10.15
2019-03-21T15:50:38.737Z,10.63
2019-03-21T15:55:38.862Z,11.95
2019-03-21T16:00:52.540Z,12.88
2019-03-21T16:06:46.679Z,12.33
2019-03-21T16:09:18.072Z,13.88
2019-03-21T16:11:48.526Z,13.68
2019-03-21T16:14:20.705Z,13.45
2019-03-21T16:16:51.210Z,14.30
2019-03-21T16:19:22.213Z,14.30
2019-03-21T16:21:52.972Z,13.58
2019-03-21T16:24:23.717Z,14.75
2019-03-21T16:26:54.352Z,15.32
2019-03-21T16:29:25.234Z,14.70
2019-03-21T16:31:56.083Z,15.15
2019-03-21T16:34:26.732Z,14.68
2019-03-21T16:36:57.589Z,14.58
2019-03-21T16:39:28.454Z,13.88
2019-03-21T16:42:02.364Z,14.35
2019-03-21T16:44:33.040Z,15.13
2019-03-21T16:47:05.400Z,14.70
2019-03-21T16:49:35.842Z,16.45
2019-03-21T16:52:07.229Z,16.35
2019-03-21T16:54:37.778Z,15.68
2019-03-21T16:57:08.616Z,15.83
2019-03-21T16:59:40.953Z,16.97
2019-03-21T17:02:12.698Z,17.12
2019-03-21T17:04:43.307Z,17.23
2019-03-21T17:09:44.331Z,14.80
2019-03-21T17:12:15.065Z,15.60
2019-03-21T17:14:47.931Z,16.02
2019-03-21T17:17:20.062Z,16.27
2019-03-21T17:19:50.462Z,17.42
2019-03-21T17:22:22.761Z,17.12
2019-03-21T17:24:53.137Z,16.87
2019-03-21T17:27:24.978Z,17.57
2019-03-21T17:29:55.313Z,19.23
2019-03-21T17:32:25.691Z,21.07
2019-03-21T17:34:56.255Z,20.37
2019-03-21T17:39:56.088Z,20.57
2019-03-21T17:42:26.456Z,21.07
2019-03-21T17:44:56.725Z,21.95
2019-03-21T17:47:27.070Z,21.02
2019-03-21T17:52:27.089Z,16.02
2019-03-21T17:54:57.414Z,12.90
2019-03-21T17:59:59.121Z,13.55
2019-03-21T18:02:29.486Z,11.75
2019-03-21T18:04:59.816Z,11.75
2019-03-21T18:07:30.171Z,11.30
2019-03-21T18:10:01.799Z,11.48
2019-03-21T18:12:32.274Z,10.00
2019-03-21T18:15:03.230Z,10.82
2019-03-21T18:17:33.864Z,9.05
2019-03-21T18:20:06.216Z,8.13
2019-03-21T18:22:36.824Z,9.35
2019-03-21T18:25:07.764Z,9.18
2019-03-21T18:30:08.672Z,8.55
2019-03-21T18:32:39.408Z,8.53
2019-03-21T18:35:10.081Z,8.60
2019-03-21T18:37:42.973Z,9.35
2019-03-21T18:40:13.735Z,9.45
2019-03-21T18:42:44.469Z,9.63
2019-03-21T18:45:16.640Z,9.35
2019-03-21T18:47:47.636Z,10.55
2019-03-21T18:50:18.804Z,10.88
2019-03-21T18:52:50.625Z,11.48
2019-03-21T18:55:21.513Z,11.48
2019-03-21T18:57:52.838Z,10.65
2019-03-21T19:00:23.571Z,11.18
2019-03-21T19:02:54.385Z,9.93
2019-03-21T19:05:25.264Z,11.43
2019-03-21T19:10:25.201Z,9.93
2019-03-21T19:15:25.915Z,10.58
2019-03-21T19:17:56.429Z,9.65
2019-03-21T19:20:27.110Z,10.45
2019-03-21T19:22:59.662Z,8.95
2019-03-21T19:25:30.164Z,9.55
2019-03-21T19:28:01.007Z,8.88
2019-03-21T19:30:31.776Z,7.55
2019-03-21T19:33:02.429Z,7.78
2019-03-21T19:35:33.287Z,8.50
2019-03-21T19:38:04.149Z,7.05
2019-03-21T19:40:35.200Z,6.10
2019-03-21T19:43:05.835Z,6.33
2019-03-21T19:45:36.383Z,5.55
2019-03-21T19:48:07.245Z,5.60
2019-03-21T19:50:38.010Z,6.33
2019-03-21T19:55:38.496Z,6.03
2019-03-21T19:58:09.132Z,5.78
2019-03-21T20:00:40.005Z,6.30
2019-03-21T20:03:10.738Z,5.97
2019-03-21T20:08:11.243Z,6.20
2019-03-21T20:13:12.343Z,6.47
2019-03-21T20:15:43.096Z,6.47
2019-03-21T20:18:13.736Z,6.58
2019-03-21T20:20:44.603Z,8.05
2019-03-21T20:23:15.360Z,6.72
2019-03-21T20:25:45.993Z,6.97
2019-03-21T20:30:46.598Z,7.55
2019-03-21T20:33:17.247Z,6.75
2019-03-21T20:35:47.882Z,7.80
2019-03-21T20:38:18.862Z,6.80
2019-03-21T20:40:49.615Z,7.67
2019-03-21T20:43:20.262Z,7.33
2019-03-21T20:45:51.103Z,7.85
2019-03-21T20:48:31.065Z,8.15
2019-03-21T20:51:01.626Z,8.48
2019-03-21T20:56:02.009Z,8.70
2019-03-21T20:58:32.763Z,9.05
2019-03-21T21:01:04.114Z,9.45
2019-03-21T21:03:34.663Z,10.68
2019-03-21T21:06:05.640Z,10.63
2019-03-21T21:08:36.273Z,9.63
2019-03-21T21:16:07.429Z,10.00
2019-03-21T21:18:38.283Z,10.10
2019-03-21T21:21:09.021Z,10.13
2019-03-21T21:23:39.772Z,10.58
2019-03-21T21:26:10.443Z,10.48
2019-03-21T21:28:41.311Z,10.20
2019-03-21T21:31:12.679Z,10.15
2019-03-21T21:33:43.430Z,10.98
2019-03-21T21:36:21.977Z,10.80
2019-03-21T21:38:46.445Z,11.08
2019-03-21T21:41:17.112Z,11.00
2019-03-21T21:43:47.968Z,11.33
2019-03-21T21:46:18.827Z,12.15
2019-03-21T21:48:49.579Z,12.18
2019-03-21T21:51:20.231Z,14.63
2019-03-21T21:53:51.087Z,13.28
2019-03-21T21:56:21.949Z,13.70
2019-03-21T21:58:52.783Z,26.27
2019-03-21T22:01:23.655Z,39.42
2019-03-21T22:04:04.127Z,43.83
2019-03-21T22:06:26.495Z,48.85
2019-03-21T22:08:57.348Z,79.70
2019-03-21T22:11:29.024Z,81.05
2019-03-21T22:13:59.760Z,87.97
2019-03-21T22:16:30.534Z,62.50
2019-03-21T22:19:01.163Z,36.60
2019-03-21T22:21:31.835Z,34.78
2019-03-21T22:24:02.673Z,32.20
2019-03-21T22:26:33.545Z,32.20
2019-03-21T22:29:04.300Z,30.75
2019-03-21T22:31:34.933Z,28.02
2019-03-21T22:34:05.791Z,26.42
2019-03-21T22:36:48.621Z,23.90
2019-03-21T22:39:08.954Z,26.33
2019-03-21T22:41:39.809Z,25.88
2019-03-21T22:44:10.560Z,29.32
2019-03-21T22:46:41.195Z,26.07
2019-03-21T22:51:41.680Z,21.33
2019-03-21T22:54:12.452Z,22.17
2019-03-21T22:56:43.103Z,23.20
2019-03-21T22:59:13.964Z,23.40
2019-03-21T23:01:44.595Z,24.40
2019-03-21T23:04:15.060Z,23.27
2019-03-21T23:06:45.693Z,24.70
2019-03-21T23:11:47.116Z,18.17
2019-03-21T23:14:17.874Z,19.87
2019-03-21T23:16:48.505Z,18.42
2019-03-21T23:21:49.500Z,18.57
2019-03-21T23:24:20.255Z,17.02
2019-03-21T23:26:53.065Z,17.07
2019-03-21T23:29:23.206Z,17.50
2019-03-21T23:34:23.697Z,18.60
2019-03-21T23:36:54.433Z,23.90
2019-03-21T23:39:25.426Z,20.65
2019-03-21T23:41:56.261Z,19.75
2019-03-21T23:44:26.897Z,18.90
2019-03-21T23:49:27.486Z,16.23
2019-03-21T23:51:58.150Z,18.90
2019-03-21T23:54:28.891Z,18.98
2019-03-21T23:57:04.457Z,20.17
2019-03-21T23:59:31.849Z,19.57
